KTPF/TPF METAR and TAF weather

Enter ICAO airport designator
Station Type Date Time Source
KTPF METAR 2021/07/27 20:35 UTC NOAA

KTPF 272035Z AUTO 22006KT 10SM BKN095 BKN120 30/24 A3001 RMK AO2


Station Type Date Time Source
KTPF Decoded METAR 2021/07/27 20:35 UTC NOAA

Tampa, Peter O Knight Airport, FL, United States (KTPF) 27-54-56N 082-26-57W
Jul 27, 2021 - 04:35 PM EDT / 2021.07.27 2035 UTC
Wind: from the SW (220 degrees) at 7 MPH (6 KT):0
Visibility: 10 mile(s):0
Sky conditions: mostly cloudy
Temperature: 86 F (30 C)
Heat index: 95.0 F (35.0 C):1
Dew Point: 75 F (24 C)
Relative Humidity: 70%
Pressure (altimeter): 30.01 in. Hg (1016 hPa)
ob: KTPF 272035Z AUTO 22006KT 10SM BKN095 BKN120 30/24 A3001 RMK AO2
cycle: 20

Station Type Date Time Source
KTPF TAF UTC NOAA

Error!

Example: see airport list